createdAt,value
2022-08-23T00:01:34.821Z,100338.81
2022-08-23T00:04:11.616Z,100342.09
2022-08-23T00:06:39.970Z,100335.00
2022-08-23T00:09:07.354Z,100333.19
2022-08-23T00:11:45.410Z,100331.31
2022-08-23T00:14:17.928Z,100334.81
2022-08-23T00:16:45.739Z,100337.59
2022-08-23T00:19:16.838Z,100343.66
2022-08-23T00:21:45.649Z,100340.25
2022-08-23T00:24:14.214Z,100344.38
2022-08-23T00:26:56.417Z,100345.22
2022-08-23T00:29:26.324Z,100334.88
2022-08-23T00:31:54.055Z,100328.84
2022-08-23T00:34:22.132Z,100329.63
2022-08-23T00:36:50.260Z,100326.22
2022-08-23T00:39:18.851Z,100327.84
2022-08-23T00:41:47.746Z,100325.22
2022-08-23T00:44:52.482Z,100327.81
2022-08-23T00:47:40.100Z,100330.47
2022-08-23T00:50:23.616Z,100327.94
2022-08-23T00:53:03.767Z,100327.94
2022-08-23T00:55:32.739Z,100319.41
2022-08-23T00:58:00.639Z,100292.03
2022-08-23T01:00:28.985Z,100328.06
2022-08-23T01:02:57.984Z,100335.00
2022-08-23T01:05:31.549Z,100323.81
2022-08-23T01:08:00.323Z,100331.72
2022-08-23T01:10:33.960Z,100330.94
2022-08-23T01:13:20.070Z,100323.22
2022-08-23T01:15:51.961Z,100336.28
2022-08-23T01:18:23.908Z,100319.94
2022-08-23T01:20:57.142Z,100333.56
2022-08-23T01:23:50.151Z,100325.69
2022-08-23T01:26:21.763Z,100313.00
2022-08-23T01:28:50.691Z,100325.69
2022-08-23T01:31:18.862Z,100331.88
2022-08-23T01:33:56.952Z,100331.88
2022-08-23T01:36:24.595Z,100333.56
2022-08-23T01:38:52.819Z,100326.63
2022-08-23T01:41:20.272Z,100326.63
2022-08-23T01:43:47.858Z,100337.78
2022-08-23T01:46:20.435Z,100334.34
2022-08-23T01:48:49.223Z,100333.56
2022-08-23T01:51:19.050Z,100336.84
2022-08-23T01:53:46.891Z,100335.16
2022-08-23T01:56:20.134Z,100319.41
2022-08-23T01:58:56.941Z,100330.69
2022-08-23T02:01:30.034Z,100329.78
2022-08-23T02:04:00.793Z,100315.88
2022-08-23T02:06:32.926Z,100313.25
2022-08-23T02:09:01.457Z,100311.38
2022-08-23T02:11:40.718Z,100317.44
2022-08-23T02:14:12.217Z,100312.22
2022-08-23T02:17:04.573Z,100318.22
2022-08-23T02:19:34.618Z,100315.72
2022-08-23T02:22:03.650Z,100316.53
2022-08-23T02:24:31.950Z,100303.41
2022-08-23T02:27:04.318Z,100311.38
2022-08-23T02:29:39.374Z,100319.28
2022-08-23T02:32:10.299Z,100317.59
2022-08-23T02:34:40.282Z,100320.22
2022-08-23T02:37:10.220Z,100325.47
2022-08-23T02:39:38.867Z,100323.72
2022-08-23T02:42:08.139Z,100300.94
2022-08-23T02:44:40.939Z,100303.38
2022-08-23T02:47:09.192Z,100318.63
2022-08-23T02:49:38.689Z,100320.25
2022-08-23T02:52:07.379Z,100321.13
2022-08-23T02:54:36.180Z,100324.66
2022-08-23T02:57:03.750Z,100322.19
2022-08-23T02:59:31.782Z,100325.69
2022-08-23T03:01:59.372Z,100314.97
2022-08-23T03:04:31.788Z,100335.75
2022-08-23T03:06:58.859Z,100342.50
2022-08-23T03:09:26.302Z,100349.56
2022-08-23T03:11:53.562Z,100363.47
2022-08-23T03:14:22.381Z,100373.16
2022-08-23T03:16:49.831Z,100372.22
2022-08-23T03:19:17.397Z,100373.94
2022-08-23T03:21:45.336Z,100377.38
2022-08-23T03:24:15.550Z,100370.66
2022-08-23T03:26:44.478Z,100387.06
2022-08-23T03:29:12.938Z,100387.97
2022-08-23T03:31:57.181Z,100406.22
2022-08-23T03:34:26.075Z,100401.00
2022-08-23T03:36:54.125Z,100400.09
2022-08-23T03:39:21.260Z,100393.19
2022-08-23T03:41:48.702Z,100397.41
2022-08-23T03:44:16.045Z,100387.97
2022-08-23T03:46:44.593Z,100391.25
2022-08-23T03:49:12.144Z,100394.66
2022-08-23T03:51:51.330Z,100396.47
2022-08-23T03:54:18.492Z,100394.00
2022-08-23T03:56:55.856Z,100393.09
2022-08-23T03:59:24.309Z,100386.09
2022-08-23T04:01:51.577Z,100383.47
2022-08-23T04:04:18.757Z,100391.25
2022-08-23T04:07:06.019Z,100396.47
2022-08-23T04:09:34.071Z,100396.47
2022-08-23T04:12:01.412Z,100385.16
2022-08-23T04:14:29.266Z,100373.94
2022-08-23T04:16:56.816Z,100384.31
2022-08-23T04:19:24.116Z,100374.00
2022-08-23T04:22:04.211Z,100383.31
2022-08-23T04:24:39.940Z,100373.94
2022-08-23T04:27:07.420Z,100381.63
2022-08-23T04:29:35.122Z,100391.09
2022-08-23T04:32:07.614Z,100377.16
2022-08-23T04:34:40.391Z,100371.84
2022-08-23T04:37:09.675Z,100375.28
2022-08-23T04:39:59.124Z,100359.06
2022-08-23T04:42:32.101Z,100377.69
2022-08-23T04:45:00.078Z,100374.16
2022-08-23T04:47:27.399Z,100378.41
2022-08-23T04:49:57.364Z,100381.81
2022-08-23T04:52:24.660Z,100378.28
2022-08-23T04:54:52.704Z,100373.75
2022-08-23T04:57:43.681Z,100375.38
2022-08-23T05:00:15.595Z,100362.53
2022-08-23T05:02:50.039Z,100355.56
2022-08-23T05:05:17.699Z,100372.47
2022-08-23T05:07:45.724Z,100373.84
2022-08-23T05:10:16.314Z,100368.41
2022-08-23T05:12:48.720Z,100370.88
2022-08-23T05:15:18.072Z,100378.63
2022-08-23T05:17:48.504Z,100380.97
2022-08-23T05:20:17.094Z,100380.06
2022-08-23T05:22:44.703Z,100379.75
2022-08-23T05:25:58.959Z,100386.50
2022-08-23T05:28:33.572Z,100384.38
2022-08-23T05:31:06.196Z,100381.53
2022-08-23T05:33:45.671Z,100373.56
2022-08-23T05:36:15.360Z,100369.25
2022-08-23T05:38:43.727Z,100367.41
2022-08-23T05:41:12.525Z,100363.91
2022-08-23T05:43:40.216Z,100351.03
2022-08-23T05:46:13.247Z,100350.88
2022-08-23T05:48:47.388Z,100360.09
2022-08-23T05:51:24.142Z,100355.53
2022-08-23T05:53:53.722Z,100355.28
2022-08-23T05:56:33.657Z,100361.91
2022-08-23T05:59:05.982Z,100358.41
2022-08-23T06:01:41.016Z,100356.53
2022-08-23T06:04:19.675Z,100357.00
2022-08-23T06:06:48.778Z,100348.28
2022-08-23T06:09:18.316Z,100359.38
2022-08-23T06:11:47.211Z,100353.09
2022-08-23T06:14:15.912Z,100360.75
2022-08-23T06:16:46.826Z,100366.47
2022-08-23T06:19:18.185Z,100364.72
2022-08-23T06:22:03.993Z,100365.41
2022-08-23T06:24:36.464Z,100361.84
2022-08-23T06:27:13.281Z,100377.22
2022-08-23T06:29:41.470Z,100383.16
2022-08-23T06:32:37.891Z,100388.97
2022-08-23T06:35:37.953Z,100390.69
2022-08-23T06:38:15.773Z,100385.44
2022-08-23T06:40:51.960Z,100389.38
2022-08-23T06:43:43.178Z,100402.13
2022-08-23T06:46:38.740Z,100402.75
2022-08-23T06:49:08.151Z,100406.91
2022-08-23T06:51:42.159Z,100407.63
2022-08-23T06:54:20.783Z,100413.75
2022-08-23T06:56:48.818Z,100410.03
2022-08-23T06:59:20.350Z,100403.06
2022-08-23T07:02:14.948Z,100400.91
2022-08-23T07:04:57.633Z,100405.34
2022-08-23T07:08:04.142Z,100406.41
2022-08-23T07:10:31.398Z,100415.19
2022-08-23T07:12:58.685Z,100406.78
2022-08-23T07:15:25.831Z,100407.41
2022-08-23T07:17:53.274Z,100392.44
2022-08-23T07:20:20.691Z,100398.16
2022-08-23T07:22:47.935Z,100393.81
2022-08-23T07:25:15.599Z,100379.88
2022-08-23T07:27:48.527Z,100381.44
2022-08-23T07:30:19.425Z,100383.28
2022-08-23T07:32:46.953Z,100385.94
2022-08-23T07:35:39.626Z,100384.84
2022-08-23T07:38:07.550Z,100390.09
2022-08-23T07:40:39.041Z,100382.34
2022-08-23T07:43:08.515Z,100370.13
2022-08-23T07:45:39.564Z,100378.88
2022-08-23T07:48:10.100Z,100385.16
2022-08-23T07:51:04.732Z,100379.81
2022-08-23T07:53:37.889Z,100367.50
2022-08-23T07:56:09.841Z,100365.97
2022-08-23T07:58:55.614Z,100382.28
2022-08-23T08:01:55.315Z,100369.19
2022-08-23T08:04:24.727Z,100371.41
2022-08-23T08:07:10.885Z,100385.53
2022-08-23T08:09:43.874Z,100394.03
2022-08-23T08:12:12.111Z,100390.47
2022-08-23T08:14:42.676Z,100395.75
2022-08-23T08:17:11.969Z,100404.84
2022-08-23T08:19:59.021Z,100406.78
2022-08-23T08:22:47.563Z,100413.69
2022-08-23T08:25:15.771Z,100424.31
2022-08-23T08:27:43.639Z,100418.34
2022-08-23T08:30:12.249Z,100414.09
2022-08-23T08:32:46.976Z,100423.72
2022-08-23T08:35:14.700Z,100427.13
2022-08-23T08:37:42.473Z,100431.53
2022-08-23T08:40:10.140Z,100431.81
2022-08-23T08:42:40.824Z,100441.41
2022-08-23T08:45:12.390Z,100443.84
2022-08-23T08:47:45.049Z,100446.44
2022-08-23T08:50:24.466Z,100450.69
2022-08-23T08:53:16.980Z,100447.25
2022-08-23T08:56:34.793Z,100441.81
2022-08-23T08:59:19.469Z,100453.91
2022-08-23T09:01:48.674Z,100446.91
2022-08-23T09:04:22.757Z,100445.41
2022-08-23T09:07:08.122Z,100446.31
2022-08-23T09:10:09.824Z,100439.28
2022-08-23T09:13:21.815Z,100441.66
2022-08-23T09:16:05.340Z,100441.66
2022-08-23T09:18:35.833Z,100447.50
2022-08-23T09:21:07.224Z,100448.28
2022-08-23T09:23:42.674Z,100450.16
2022-08-23T09:26:17.535Z,100453.75
2022-08-23T09:28:47.970Z,100470.28
2022-08-23T09:31:51.028Z,100467.50
2022-08-23T09:34:24.216Z,100469.28
2022-08-23T09:37:16.573Z,100467.50
2022-08-23T09:39:49.849Z,100469.19
2022-08-23T09:42:40.601Z,100476.34
2022-08-23T09:45:28.874Z,100476.16
2022-08-23T09:47:58.413Z,100482.38
2022-08-23T09:50:42.473Z,100480.59
2022-08-23T09:53:13.064Z,100494.53
2022-08-23T09:55:54.946Z,100495.72
2022-08-23T09:58:36.485Z,100497.25
2022-08-23T10:01:20.463Z,100492.94
2022-08-23T10:04:23.334Z,100490.13
2022-08-23T10:06:53.242Z,100494.38
2022-08-23T10:09:28.947Z,100496.84
2022-08-23T10:11:58.864Z,100509.94
2022-08-23T10:14:30.761Z,100502.88
2022-08-23T10:17:17.392Z,100505.59
2022-08-23T10:19:52.581Z,100504.06
2022-08-23T10:22:27.158Z,100502.19
2022-08-23T10:25:22.324Z,100506.69
2022-08-23T10:28:21.157Z,100504.06
2022-08-23T10:31:01.187Z,100492.94
2022-08-23T10:34:18.386Z,100490.97
2022-08-23T10:36:58.298Z,100488.25
2022-08-23T10:39:30.503Z,100474.28
2022-08-23T10:42:24.058Z,100486.38
2022-08-23T10:47:44.624Z,100501.25
2022-08-23T10:50:22.225Z,100505.59
2022-08-23T10:53:13.777Z,100509.94
2022-08-23T10:56:06.366Z,100502.69
2022-08-23T10:58:53.766Z,100493.84
2022-08-23T11:01:26.611Z,100496.41
2022-08-23T11:04:03.841Z,100493.00
2022-08-23T11:06:48.242Z,100489.44
2022-08-23T11:09:15.466Z,100506.94
2022-08-23T11:12:14.743Z,100515.03
2022-08-23T11:14:58.792Z,100500.13
2022-08-23T11:17:41.304Z,100502.03
2022-08-23T11:20:12.393Z,100500.31
2022-08-23T11:22:57.878Z,100499.63
2022-08-23T11:25:25.108Z,100509.34
2022-08-23T11:28:24.080Z,100502.69
2022-08-23T11:31:24.867Z,100507.06
2022-08-23T11:34:01.249Z,100506.28
2022-08-23T11:36:30.379Z,100502.97
2022-08-23T11:38:57.547Z,100498.63
2022-08-23T11:41:31.665Z,100496.09
2022-08-23T11:44:07.739Z,100489.09
2022-08-23T11:46:48.803Z,100493.50
2022-08-23T11:49:17.524Z,100489.25
2022-08-23T11:51:50.704Z,100491.13
2022-08-23T11:54:52.251Z,100493.00
2022-08-23T11:57:29.399Z,100484.16
2022-08-23T11:59:59.396Z,100484.84
2022-08-23T12:02:36.899Z,100490.81
2022-08-23T12:05:23.075Z,100496.09
2022-08-23T12:08:06.022Z,100495.06
2022-08-23T12:11:06.128Z,100496.56
2022-08-23T12:13:46.848Z,100491.97
2022-08-23T12:16:29.268Z,100491.66
2022-08-23T12:19:01.622Z,100495.91
2022-08-23T12:21:44.263Z,100484.50
2022-08-23T12:24:23.092Z,100486.94
2022-08-23T12:27:08.211Z,100484.31
2022-08-23T12:30:16.962Z,100482.44
2022-08-23T12:33:08.632Z,100479.81
2022-08-23T12:36:01.573Z,100466.91
2022-08-23T12:39:09.019Z,100471.91
2022-08-23T12:41:52.387Z,100480.75
2022-08-23T12:44:21.966Z,100476.41
2022-08-23T12:46:50.475Z,100481.78
2022-08-23T12:49:36.468Z,100472.50
2022-08-23T12:52:12.071Z,100480.25
2022-08-23T12:54:43.198Z,100458.66
2022-08-23T12:57:19.502Z,100469.19
2022-08-23T13:00:16.550Z,100464.09
2022-08-23T13:03:18.481Z,100455.41
2022-08-23T13:05:56.598Z,100460.69
2022-08-23T13:08:39.826Z,100453.56
2022-08-23T13:11:09.859Z,100455.25
2022-08-23T13:13:42.774Z,100456.97
2022-08-23T13:16:31.710Z,100460.16
2022-08-23T13:19:16.668Z,100447.09
2022-08-23T13:21:44.431Z,100455.59
2022-08-23T13:24:38.532Z,100459.66
2022-08-23T13:27:23.080Z,100457.28
2022-08-23T13:29:59.525Z,100452.81
2022-08-23T13:32:34.941Z,100448.38
2022-08-23T13:35:31.647Z,100451.75
2022-08-23T13:38:20.977Z,100451.69
2022-08-23T13:41:03.141Z,100454.16
2022-08-23T13:43:38.190Z,100453.38
2022-08-23T13:46:13.084Z,100453.72
2022-08-23T13:48:47.941Z,100441.94
2022-08-23T13:51:33.635Z,100452.47
2022-08-23T13:54:23.021Z,100453.03
2022-08-23T13:56:53.377Z,100453.88
2022-08-23T13:59:36.461Z,100456.25
2022-08-23T14:02:08.380Z,100450.56
2022-08-23T14:04:35.629Z,100443.41
2022-08-23T14:07:03.193Z,100428.31
2022-08-23T14:09:30.314Z,100430.56
2022-08-23T14:11:59.807Z,100438.00
2022-08-23T14:14:31.799Z,100431.66
2022-08-23T14:17:02.623Z,100435.06
2022-08-23T14:22:19.453Z,100424.50
2022-08-23T14:24:46.717Z,100421.84
2022-08-23T14:27:14.265Z,100420.81
2022-08-23T14:29:41.529Z,100417.13
2022-08-23T14:32:08.738Z,100409.72
2022-08-23T14:34:36.074Z,100419.94
2022-08-23T14:39:50.842Z,100420.78
2022-08-23T14:42:22.173Z,100415.28
2022-08-23T14:44:49.665Z,100422.19
2022-08-23T14:47:17.325Z,100411.38
2022-08-23T14:49:44.565Z,100406.84
2022-08-23T14:52:14.070Z,100408.53
2022-08-23T14:54:41.499Z,100405.19
2022-08-23T14:57:08.722Z,100406.09
2022-08-23T14:59:35.896Z,100412.56
2022-08-23T15:02:05.149Z,100403.88
2022-08-23T15:04:34.553Z,100421.41
2022-08-23T15:07:19.920Z,100419.53
2022-08-23T15:09:52.104Z,100421.41
2022-08-23T15:15:12.322Z,100430.72
2022-08-23T15:17:47.891Z,100423.72
2022-08-23T15:20:15.598Z,100427.13
2022-08-23T15:22:44.589Z,100421.81
2022-08-23T15:25:13.840Z,100422.66
2022-08-23T15:27:42.235Z,100429.00
2022-08-23T15:30:10.891Z,100434.28
2022-08-23T15:32:38.063Z,100426.66
2022-08-23T15:35:07.575Z,100430.50
2022-08-23T15:37:35.584Z,100429.03
2022-08-23T15:40:04.129Z,100424.22
2022-08-23T15:42:31.339Z,100434.72
2022-08-23T15:44:58.728Z,100435.63
2022-08-23T15:47:30.152Z,100430.56
2022-08-23T15:49:58.828Z,100441.88
2022-08-23T15:52:27.295Z,100448.13
2022-08-23T15:54:55.261Z,100451.69
2022-08-23T15:57:28.005Z,100458.13
2022-08-23T15:59:57.415Z,100460.97
2022-08-23T16:02:25.007Z,100467.94
2022-08-23T16:04:52.126Z,100468.16
2022-08-23T16:07:19.249Z,100467.94
2022-08-23T16:09:47.385Z,100467.94
2022-08-23T16:12:14.738Z,100466.44
2022-08-23T16:14:41.835Z,100475.13
2022-08-23T16:17:09.781Z,100480.41
2022-08-23T16:19:37.082Z,100477.97
2022-08-23T16:22:04.413Z,100479.13
2022-08-23T16:24:31.642Z,100477.59
2022-08-23T16:26:58.891Z,100483.06
2022-08-23T16:29:28.838Z,100474.75
2022-08-23T16:31:55.990Z,100478.25
2022-08-23T16:34:23.512Z,100477.28
2022-08-23T16:37:04.967Z,100480.06
2022-08-23T16:39:34.621Z,100479.28
2022-08-23T16:42:04.966Z,100473.25
2022-08-23T16:44:33.626Z,100469.69
2022-08-23T16:47:04.190Z,100468.72
2022-08-23T16:49:34.924Z,100471.38
2022-08-23T16:52:02.890Z,100474.75
2022-08-23T16:54:30.200Z,100465.13
2022-08-23T16:56:57.343Z,100474.84
2022-08-23T16:59:25.523Z,100481.94
2022-08-23T17:02:05.868Z,100486.38
2022-08-23T17:04:38.432Z,100480.44
2022-08-23T17:07:06.589Z,100492.69
2022-08-23T17:09:33.756Z,100491.84
2022-08-23T17:12:01.232Z,100481.75
2022-08-23T17:14:28.661Z,100477.56
2022-08-23T17:16:55.831Z,100494.09
2022-08-23T17:19:23.153Z,100494.09
2022-08-23T17:21:50.354Z,100489.03
2022-08-23T17:24:17.612Z,100502.94
2022-08-23T17:26:44.784Z,100499.47
2022-08-23T17:29:12.474Z,100504.00
2022-08-23T17:31:40.229Z,100493.50
2022-08-23T17:34:07.843Z,100499.81
2022-08-23T17:36:47.985Z,100492.94
2022-08-23T17:39:18.662Z,100495.84
2022-08-23T17:41:45.908Z,100495.84
2022-08-23T17:44:15.593Z,100497.75
2022-08-23T17:46:45.090Z,100492.63
2022-08-23T17:49:14.400Z,100497.16
2022-08-23T17:51:41.819Z,100501.69
2022-08-23T17:54:10.264Z,100507.16
2022-08-23T17:56:38.225Z,100507.53
2022-08-23T17:59:08.831Z,100501.84
2022-08-23T18:01:37.437Z,100509.00
2022-08-23T18:04:06.580Z,100500.69
2022-08-23T18:06:36.703Z,100512.94
2022-08-23T18:09:06.560Z,100519.50
2022-08-23T18:11:35.068Z,100528.34
2022-08-23T18:14:02.305Z,100517.97
2022-08-23T18:16:34.649Z,100519.84
2022-08-23T18:19:04.129Z,100518.34
2022-08-23T18:21:31.653Z,100519.44
2022-08-23T18:23:59.402Z,100517.16
2022-08-23T18:26:46.267Z,100533.13
2022-08-23T18:29:14.743Z,100521.41
2022-08-23T18:31:44.082Z,100524.13
2022-08-23T18:34:12.587Z,100527.03
2022-08-23T18:36:40.214Z,100530.94
2022-08-23T18:39:09.024Z,100526.69
2022-08-23T18:41:36.263Z,100533.16
2022-08-23T18:44:05.540Z,100535.97
2022-08-23T18:46:37.751Z,100538.78
2022-08-23T18:49:05.825Z,100535.34
2022-08-23T18:51:33.134Z,100540.97
2022-08-23T18:54:00.829Z,100557.63
2022-08-23T18:56:28.200Z,100556.03
2022-08-23T18:58:55.430Z,100557.88
2022-08-23T19:01:33.664Z,100559.00
2022-08-23T19:04:02.803Z,100554.97
2022-08-23T19:06:30.824Z,100566.13
2022-08-23T19:08:58.109Z,100574.97
2022-08-23T19:11:25.383Z,100578.53
2022-08-23T19:13:52.457Z,100585.53
2022-08-23T19:16:21.968Z,100582.09
2022-08-23T19:18:50.886Z,100593.25
2022-08-23T19:21:21.595Z,100589.25
2022-08-23T19:23:51.191Z,100597.75
2022-08-23T19:26:22.191Z,100590.25
2022-08-23T19:28:49.872Z,100599.63
2022-08-23T19:31:17.412Z,100604.72
2022-08-23T19:33:45.349Z,100602.84
2022-08-23T19:36:35.808Z,100609.84
2022-08-23T19:39:00.576Z,100609.75
2022-08-23T19:41:27.780Z,100607.97
2022-08-23T19:43:55.907Z,100606.28
2022-08-23T19:46:23.255Z,100609.84
2022-08-23T19:48:52.382Z,100611.72
2022-08-23T19:51:21.559Z,100621.41
2022-08-23T19:54:06.947Z,100618.84
2022-08-23T19:56:39.261Z,100626.13
2022-08-23T19:59:09.162Z,100626.31
2022-08-23T20:01:37.154Z,100630.50
2022-08-23T20:04:05.435Z,100633.97
2022-08-23T20:06:32.896Z,100635.00
2022-08-23T20:09:00.209Z,100636.84
2022-08-23T20:11:32.206Z,100632.06
2022-08-23T20:14:01.496Z,100633.75
2022-08-23T20:16:32.945Z,100616.38
2022-08-23T20:22:57.230Z,100625.69
2022-08-23T20:25:24.643Z,100619.34
2022-08-23T20:27:52.087Z,100634.84
2022-08-23T20:30:19.270Z,100638.41
2022-08-23T20:32:46.433Z,100625.06
2022-08-23T20:35:13.898Z,100636.38
2022-08-23T20:37:41.172Z,100631.38
2022-08-23T20:40:12.470Z,100635.28
2022-08-23T20:42:39.917Z,100629.56
2022-08-23T20:45:07.725Z,100640.41
2022-08-23T20:47:35.671Z,100642.41
2022-08-23T20:50:03.155Z,100646.81
2022-08-23T20:52:34.425Z,100652.44
2022-08-23T20:55:02.416Z,100646.28
2022-08-23T20:57:32.018Z,100641.13
2022-08-23T21:00:07.453Z,100646.41
2022-08-23T21:02:34.982Z,100651.81
2022-08-23T21:05:04.734Z,100651.06
2022-08-23T21:07:33.852Z,100632.03
2022-08-23T21:10:01.088Z,100642.13
2022-08-23T21:12:28.683Z,100649.81
2022-08-23T21:14:57.027Z,100623.66
2022-08-23T21:17:24.399Z,100634.72
2022-08-23T21:19:51.592Z,100640.88
2022-08-23T21:22:18.823Z,100634.66
2022-08-23T21:24:46.943Z,100638.94
2022-08-23T21:27:15.877Z,100641.56
2022-08-23T21:29:42.990Z,100639.78
2022-08-23T21:32:10.298Z,100632.72
2022-08-23T21:34:37.459Z,100626.59
2022-08-23T21:37:04.717Z,100628.19
2022-08-23T21:39:31.885Z,100634.28
2022-08-23T21:41:59.200Z,100638.72
2022-08-23T21:44:26.603Z,100636.81
2022-08-23T21:46:53.788Z,100634.28
2022-08-23T21:49:23.637Z,100632.66
2022-08-23T21:51:51.559Z,100631.88
2022-08-23T21:54:18.787Z,100630.34
2022-08-23T21:56:46.194Z,100623.50
2022-08-23T21:59:16.954Z,100636.66
2022-08-23T22:01:45.393Z,100630.63
2022-08-23T22:04:14.709Z,100637.75
2022-08-23T22:06:44.251Z,100628.34
2022-08-23T22:09:14.199Z,100629.19
2022-08-23T22:11:43.336Z,100633.03
2022-08-23T22:14:20.425Z,100640.16
2022-08-23T22:16:49.626Z,100641.38
2022-08-23T22:19:22.502Z,100651.97
2022-08-23T22:21:51.583Z,100642.59
2022-08-23T22:24:24.666Z,100649.53
2022-08-23T22:26:53.286Z,100660.06
2022-08-23T22:29:20.616Z,100662.84
2022-08-23T22:31:48.541Z,100665.63
2022-08-23T22:34:16.084Z,100661.72
2022-08-23T22:36:43.219Z,100661.09
2022-08-23T22:39:12.511Z,100665.72
2022-08-23T22:41:40.143Z,100663.34
2022-08-23T22:44:07.291Z,100664.41
2022-08-23T22:46:35.317Z,100672.31
2022-08-23T22:49:02.736Z,100670.72
2022-08-23T22:51:32.755Z,100679.69
2022-08-23T22:54:02.697Z,100665.91
2022-08-23T22:56:42.768Z,100667.03
2022-08-23T22:59:10.566Z,100663.75
2022-08-23T23:01:44.245Z,100656.03
2022-08-23T23:04:14.419Z,100649.34
2022-08-23T23:06:42.051Z,100654.59
2022-08-23T23:09:10.952Z,100651.97
2022-08-23T23:11:40.183Z,100658.13
2022-08-23T23:14:08.840Z,100659.00
2022-08-23T23:16:36.513Z,100640.81
2022-08-23T23:19:22.122Z,100644.34
2022-08-23T23:21:52.499Z,100659.13
2022-08-23T23:24:21.502Z,100656.72
2022-08-23T23:26:48.650Z,100647.06
2022-08-23T23:29:16.885Z,100652.22
2022-08-23T23:31:43.980Z,100653.16
2022-08-23T23:34:11.114Z,100657.38
2022-08-23T23:36:38.820Z,100654.84
2022-08-23T23:39:08.687Z,100654.75
2022-08-23T23:41:35.981Z,100657.56
2022-08-23T23:44:03.535Z,100656.13
2022-08-23T23:46:30.694Z,100647.00
2022-08-23T23:48:57.831Z,100650.56
2022-08-23T23:51:28.178Z,100641.75
2022-08-23T23:53:56.101Z,100645.31
2022-08-23T23:56:25.699Z,100636.50
2022-08-23T23:58:54.383Z,100640.78
